Batumi International Airport
UGSB : rendu visible

Aérodrome :











RETROUVEZ-NOUS SUR...

 
LOGIN :

S'inscrire | Disclaimer

   EN    FR    IT 

 









Légende :    VFR   VFR Marginal   IFR   IFR Intensif   IFR Très Intensif
Visi : 
Plafond : 
>= 8 km
>= 3000ft
5 à 8 km
1000 à 3000 ft
1500m à 5 km
500 à 1000 ft
800 à 1500m
200 à 500 ft
< 800m
< 200 ft
Symboles :   Orages  Brouillard  Fortes neiges  Fortes précipitations  Vent > 20 kt







- Altitude de l'aérodrome : 105 ft
- Code IATA : BUS


UGSB - Batumi International

DERNIER METAR :
  • 231400Z 03004KT CAVOK 28/18 Q1007 R13/CLRD70 NOSIG

METARs EXPIRÉS :
  • 231330Z 04004KT CAVOK 28/17 Q1008 R13/CLRD70 NOSIG
  • 231300Z 02006KT CAVOK 28/19 Q1008 R13/70D NOSIG
  • 231230Z 02006KT CAVOK 28/20 Q1008 R13/70D NOSIG
  • 231200Z 02006KT CAVOK 28/20 Q1009 R13/70D NOSIG
  • 231130Z 02008KT CAVOK 27/20 Q1009 R13/CLRD70 NOSIG

TAF TAF UGSB
Valide du 23 à 12h jusqu'au 24 à 12h UTC


231100Z 2312/2412 02008KT CAVOK TX26/2312Z TN17/2402Z
BECMG 2315/2317 13015KT
TEMPO 2400/2405 13025G35KT
BECMG 2406/2408 23020G30KT 6000 -SHRA BKN017CB
TEMPO 2407/2412 VRB45KT 2000 TSRA SQ BKN007 OVC015CB
FIR UGGG / Asie



MET'MAP, la Météo Aéronautique d'un coup d'oeil ! - Copyright ORBIFLY Décembre 2007 - Disclaimer

ORBIFLY MET'MAP TEAM :

Programmation & Développement : Alexandra Zaïnal
Conception & Développement : Baudouin d'Aumeries
Co-Programmation & Développement : Marc-Olivier Méhu
Soutien technique & logistique : Manuel Goepfert

Contact : metmap@orbifly.com




SOURCES & CREDITS :

   NOAA       Earth
Advisory